Time;durP1;ratioP1;P1;durP2;ratioP2;P2;SDS_P1;SDS_P2;PMS_P1;PMS_P2;Temp;Humidity;BMP_temperature;BMP_pressure;BME280_temperature;BME280_humidity;BME280_pressure;Samples;Min_cycle;Max_cycle;Signal;HPM_P1;HPM_P2
2023/12/02 00:01:37;;;;;;;12.38;5.20;;;;;;;9.93;84.95;100335.91;10332177;28;97114;-73
2023/12/02 00:06:41;;;;;;;10.25;5.13;;;;;;;9.96;85.25;100335.78;10330917;28;96894;-73
2023/12/02 00:11:44;;;;;;;9.57;4.38;;;;;;;9.92;84.69;100342.06;10334035;28;97154;-73
2023/12/02 00:16:49;;;;;;;12.05;5.00;;;;;;;9.90;85.56;100338.66;10332367;28;96632;-73
2023/12/02 00:21:52;;;;;;;8.13;4.70;;;;;;;9.83;85.92;100348.50;10332199;28;98998;-73
2023/12/02 00:26:55;;;;;;;10.05;4.15;;;;;;;9.92;85.04;100352.56;10331958;28;96842;-73
2023/12/02 00:32:00;;;;;;;8.85;4.50;;;;;;;9.86;85.80;100351.06;10339695;28;96757;-72
2023/12/02 00:37:04;;;;;;;8.38;5.00;;;;;;;9.90;86.00;100363.16;10330014;28;96716;-73
2023/12/02 00:42:07;;;;;;;9.43;5.18;;;;;;;9.95;85.50;100363.00;10331210;28;96769;-73
2023/12/02 00:47:12;;;;;;;8.10;5.03;;;;;;;9.96;84.92;100356.81;10364871;28;97315;-73
2023/12/02 00:52:16;;;;;;;11.55;5.82;;;;;;;9.93;85.39;100355.19;10342697;28;96878;-73
2023/12/02 00:57:19;;;;;;;8.23;4.00;;;;;;;9.87;85.66;100359.75;10338336;28;96948;-73
2023/12/02 01:02:24;;;;;;;6.60;3.70;;;;;;;9.84;85.46;100359.88;10338605;28;96707;-73
2023/12/02 01:07:27;;;;;;;8.68;3.70;;;;;;;9.44;84.35;100367.41;10398777;22;98428;-72
2023/12/02 01:12:31;;;;;;;6.82;3.05;;;;;;;9.71;84.82;100369.94;10421249;28;96593;-73
2023/12/02 01:17:36;;;;;;;9.20;4.05;;;;;;;9.62;84.82;100369.41;10420542;28;96744;-73
2023/12/02 01:22:39;;;;;;;7.63;4.38;;;;;;;9.57;84.77;100366.09;10421208;27;97154;-73
2023/12/02 01:27:43;;;;;;;6.47;3.80;;;;;;;9.39;85.42;100378.06;10418562;27;96906;-73
2023/12/02 01:32:47;;;;;;;9.32;4.18;;;;;;;9.46;84.74;100383.97;10419940;28;96748;-73
2023/12/02 01:37:51;;;;;;;4.93;3.05;;;;;;;9.33;85.32;100390.53;10415891;27;96736;-73
2023/12/02 01:42:54;;;;;;;5.32;3.47;;;;;;;9.49;85.38;100389.13;10419731;28;96855;-73
2023/12/02 01:48:00;;;;;;;7.03;3.05;;;;;;;9.38;85.52;100386.84;10419507;28;96802;-73
2023/12/02 01:53:03;;;;;;;7.40;3.95;;;;;;;9.36;84.69;100387.81;10416251;27;96681;-73
2023/12/02 01:58:07;;;;;;;4.68;2.75;;;;;;;9.34;85.21;100397.50;10418838;27;96843;-73
2023/12/02 02:03:12;;;;;;;9.18;3.33;;;;;;;9.28;85.17;100400.34;10419466;28;96679;-73
2023/12/02 02:08:15;;;;;;;4.68;2.80;;;;;;;9.41;85.07;100409.53;10418273;28;96702;-72
2023/12/02 02:13:19;;;;;;;6.32;3.70;;;;;;;9.39;85.04;100411.34;10419036;27;96744;-73
2023/12/02 02:18:23;;;;;;;11.32;3.60;;;;;;;9.13;85.73;100410.38;10417039;27;97732;-73
2023/12/02 02:23:28;;;;;;;7.93;3.63;;;;;;;9.13;85.05;100420.88;10419139;27;97076;-73
2023/12/02 02:28:32;;;;;;;9.82;3.60;;;;;;;9.23;85.01;100429.31;10418718;27;97606;-73
2023/12/02 02:33:35;;;;;;;8.60;3.88;;;;;;;9.18;84.69;100428.59;10417455;28;96917;-73
2023/12/02 02:38:40;;;;;;;5.50;3.40;;;;;;;9.35;85.35;100436.84;10417843;28;96766;-73
2023/12/02 02:43:43;;;;;;;;;;;;;;;9.41;84.91;100438.41;10419042;27;96871;-72
2023/12/02 02:48:47;;;;;;;7.82;3.13;;;;;;;9.14;85.58;100435.72;10417404;27;98759;-72
2023/12/02 02:53:52;;;;;;;5.65;3.17;;;;;;;9.24;85.24;100451.22;10418115;28;96656;-72
2023/12/02 02:58:56;;;;;;;5.93;2.80;;;;;;;9.24;84.81;100454.72;10416575;28;96700;-73
2023/12/02 03:04:00;;;;;;;9.80;3.13;;;;;;;9.22;84.95;100453.00;10417705;27;98550;-73
2023/12/02 03:09:06;;;;;;;4.88;2.92;;;;;;;9.13;84.66;100454.13;10414852;27;96815;-72
2023/12/02 03:14:09;;;;;;;5.13;2.70;;;;;;;9.01;85.05;100457.13;10416254;28;96726;-72
2023/12/02 03:19:12;;;;;;;3.67;2.45;;;;;;;8.82;84.62;100464.69;10417949;27;97411;-73
2023/12/02 03:24:18;;;;;;;6.70;2.53;;;;;;;9.02;85.15;100466.72;10416529;28;96801;-73
2023/12/02 03:29:21;;;;;;;4.80;2.50;;;;;;;8.99;84.56;100469.44;10415750;28;96828;-72
2023/12/02 03:34:25;;;;;;;4.50;2.38;;;;;;;8.99;84.99;100472.06;10415433;27;96799;-73
2023/12/02 03:39:29;;;;;;;6.80;2.78;;;;;;;9.02;84.92;100471.97;10416000;28;96767;-72
2023/12/02 03:44:33;;;;;;;3.35;2.17;;;;;;;8.93;84.71;100467.84;10416181;28;96616;-72
2023/12/02 03:49:36;;;;;;;6.60;2.25;;;;;;;8.95;84.38;100473.91;10415562;27;96826;-73
2023/12/02 03:54:41;;;;;;;3.88;2.58;;;;;;;8.85;85.24;100468.97;10415970;27;96739;-72
2023/12/02 03:59:44;;;;;;;5.07;2.60;;;;;;;8.98;84.93;100486.09;10413757;28;96723;-73
2023/12/02 04:04:48;;;;;;;6.95;2.90;;;;;;;9.01;84.77;100489.50;10414900;28;98494;-72
2023/12/02 04:09:53;;;;;;;5.25;2.50;;;;;;;8.97;85.39;100505.38;10415518;27;98781;-72
2023/12/02 04:14:56;;;;;;;5.78;2.58;;;;;;;8.99;84.51;100499.19;10410902;28;96660;-72
2023/12/02 04:20:08;;;;;;;8.98;2.83;;;;;;;9.00;84.84;100503.50;10419164;27;96819;-72
2023/12/02 04:25:13;;;;;;;3.92;2.67;;;;;;;9.03;85.55;100497.31;10422703;27;96605;-73
2023/12/02 04:30:17;;;;;;;4.18;2.25;;;;;;;8.89;85.43;100496.88;10421432;28;96754;-73
2023/12/02 04:35:21;;;;;;;3.38;2.22;;;;;;;8.75;85.96;100499.88;10415296;28;96749;-72
2023/12/02 04:40:26;;;;;;;6.53;2.08;;;;;;;8.69;85.61;100505.28;10422217;28;96586;-73
2023/12/02 04:45:30;;;;;;;3.65;2.13;;;;;;;8.55;85.81;100510.06;10421252;27;96852;-72
2023/12/02 04:50:34;;;;;;;4.05;1.60;;;;;;;8.35;86.77;100512.38;10419949;28;96765;-72
2023/12/02 04:55:39;;;;;;;4.88;1.75;;;;;;;8.29;86.76;100515.13;10421013;28;96790;-72
2023/12/02 05:00:42;;;;;;;;;;;;;;;8.36;86.72;100521.94;10420666;27;96845;-72
2023/12/02 05:05:46;;;;;;;5.05;2.38;;;;;;;8.24;86.05;100531.91;10421057;27;96657;-72
2023/12/02 05:10:52;;;;;;;6.38;1.92;;;;;;;8.14;86.39;100526.03;10420428;28;96784;-73
2023/12/02 05:15:55;;;;;;;4.07;2.40;;;;;;;7.95;86.31;100535.25;10421360;27;97600;-72
2023/12/02 05:20:59;;;;;;;6.60;1.83;;;;;;;7.87;86.10;100539.81;10421108;28;96570;-72
2023/12/02 05:26:04;;;;;;;2.85;1.90;;;;;;;7.86;86.81;100546.81;10421835;27;96765;-72
2023/12/02 05:31:08;;;;;;;;;;;;;;;7.86;86.69;100556.41;10419527;27;96594;-72
2023/12/02 05:36:12;;;;;;;4.72;2.10;;;;;;;7.74;86.75;100562.81;10419659;27;97462;-72
2023/12/02 05:41:17;;;;;;;5.50;2.83;;;;;;;7.76;87.07;100578.50;10418465;27;97006;-72
2023/12/02 05:46:20;;;;;;;4.45;2.53;;;;;;;7.91;86.71;100588.59;10419765;28;96688;-72
2023/12/02 05:51:24;;;;;;;5.50;2.10;;;;;;;7.97;86.81;100589.34;10419778;27;97035;-73
2023/12/02 05:56:29;;;;;;;6.35;2.25;;;;;;;7.96;86.63;100592.00;10418414;28;97572;-72
2023/12/02 06:01:32;;;;;;;2.63;1.88;;;;;;;8.01;86.12;100602.38;10418423;28;96932;-72
2023/12/02 06:06:35;;;;;;;5.05;1.85;;;;;;;8.11;86.03;100603.88;10412112;28;97683;-72
2023/12/02 06:11:40;;;;;;;4.53;1.90;;;;;;;8.27;86.29;100606.09;10418336;27;96865;-72
2023/12/02 06:16:44;;;;;;;5.30;2.00;;;;;;;8.23;86.02;100627.16;10419062;28;96900;-72
2023/12/02 06:21:47;;;;;;;3.30;2.03;;;;;;;8.11;85.91;100623.09;10418729;28;96649;-72
2023/12/02 06:26:52;;;;;;;6.60;2.15;;;;;;;8.11;86.25;100617.84;10418055;27;96891;-72
2023/12/02 06:31:55;;;;;;;2.28;1.50;;;;;;;8.05;86.89;100617.13;10417492;28;97013;-72
2023/12/02 06:36:59;;;;;;;3.15;1.65;;;;;;;7.89;86.47;100611.38;10417339;28;97157;-72
2023/12/02 06:42:04;;;;;;;5.63;2.05;;;;;;;7.88;87.23;100615.75;10416867;27;96781;-72
2023/12/02 06:47:08;;;;;;;3.53;2.00;;;;;;;7.95;86.62;100625.19;10416862;28;96967;-72
2023/12/02 06:52:11;;;;;;;2.28;1.50;;;;;;;8.03;86.79;100632.03;10417177;28;96966;-72
2023/12/02 06:57:16;;;;;;;2.65;1.58;;;;;;;7.94;86.41;100633.94;10417920;28;96950;-72
2023/12/02 07:02:19;;;;;;;4.13;1.63;;;;;;;8.00;86.20;100643.44;10417607;27;96708;-72
2023/12/02 07:07:23;;;;;;;6.05;1.92;;;;;;;8.01;86.36;100639.94;10375412;28;96825;-72
2023/12/02 07:12:28;;;;;;;3.38;2.10;;;;;;;8.14;86.16;100638.72;10398531;28;96953;-72
2023/12/02 07:17:31;;;;;;;5.80;1.65;;;;;;;7.97;86.29;100647.00;10416694;27;97021;-72
2023/12/02 07:22:35;;;;;;;2.97;1.55;;;;;;;7.93;86.69;100658.44;10415553;28;96624;-72
2023/12/02 07:27:41;;;;;;;1.85;1.33;;;;;;;7.79;86.84;100657.00;10416243;28;98056;-73
2023/12/02 07:32:46;;;;;;;2.58;1.30;;;;;;;7.70;86.77;100663.31;10416795;27;96909;-73
2023/12/02 07:37:49;;;;;;;;;;;;;;;7.77;86.49;100680.63;10415543;28;96710;-73
2023/12/02 07:42:54;;;;;;;2.92;1.40;;;;;;;7.87;86.71;100686.53;10414862;28;96860;-73
2023/12/02 07:47:57;;;;;;;2.90;1.60;;;;;;;7.95;86.35;100697.69;10414580;28;96702;-73
2023/12/02 07:53:01;;;;;;;2.92;1.48;;;;;;;8.02;86.48;100701.91;10415413;27;96713;-73
2023/12/02 07:58:06;;;;;;;4.88;1.77;;;;;;;8.03;86.38;100711.47;10415922;28;97584;-74
2023/12/02 08:03:09;;;;;;;3.42;1.65;;;;;;;7.99;85.78;100718.56;10413486;28;96942;-76
